sim
Sign-in with your pilot id or email,
or register
Callsign
Passwort

Schedule Details

Flight Number: OEO8911
Departure: Ajaccio-Napoléon Bonaparte Airport (LFKJ) at 10:40
Arrival: Bremen Airport (EDDW) at 12:55

Weather Information
Getting current METAR information for LFKJ 112000Z AUTO VRB02KT CAVOK 24/20 Q1015 NOSIG
Getting current METAR information for EDDW 111950Z VRB01KT 9999 FEW024TCU 14/12 Q1025 NOSIG

Schedule Frequency

Route Map